createdAt,value
2023-05-05T00:01:03.385Z,18.79
2023-05-05T00:03:31.457Z,18.77
2023-05-05T00:05:58.956Z,18.74
2023-05-05T00:08:26.072Z,18.73
2023-05-05T00:10:54.247Z,18.72
2023-05-05T00:13:22.002Z,18.68
2023-05-05T00:15:50.702Z,18.66
2023-05-05T00:18:18.605Z,18.65
2023-05-05T00:20:47.425Z,18.65
2023-05-05T00:23:16.465Z,18.63
2023-05-05T00:25:43.549Z,18.63
2023-05-05T00:28:10.692Z,18.61
2023-05-05T00:30:40.327Z,18.59
2023-05-05T00:33:15.418Z,18.57
2023-05-05T00:35:45.076Z,18.55
2023-05-05T00:38:12.068Z,18.52
2023-05-05T00:40:39.222Z,18.40
2023-05-05T00:43:07.755Z,18.29
2023-05-05T00:45:37.061Z,18.23
2023-05-05T00:48:04.535Z,18.17
2023-05-05T00:50:31.880Z,18.15
2023-05-05T00:53:03.278Z,18.13
2023-05-05T00:55:32.543Z,18.15
2023-05-05T00:58:03.325Z,18.14
2023-05-05T01:00:31.660Z,18.13
2023-05-05T01:02:59.876Z,18.12
2023-05-05T01:05:48.381Z,18.09
2023-05-05T01:08:44.527Z,18.08
2023-05-05T01:11:35.952Z,18.05
2023-05-05T01:14:26.062Z,18.04
2023-05-05T01:17:22.456Z,18.06
2023-05-05T01:20:11.946Z,18.04
2023-05-05T01:22:47.099Z,18.04
2023-05-05T01:25:47.837Z,18.01
2023-05-05T01:28:34.760Z,18.01
2023-05-05T01:31:14.228Z,17.99
2023-05-05T01:33:49.859Z,17.97
2023-05-05T01:36:24.392Z,17.98
2023-05-05T01:38:58.226Z,17.97
2023-05-05T01:41:32.449Z,17.92
2023-05-05T01:44:03.395Z,17.94
2023-05-05T01:46:30.682Z,17.95
2023-05-05T01:48:59.068Z,17.96
2023-05-05T01:51:28.034Z,17.95
2023-05-05T01:54:02.751Z,17.95
2023-05-05T01:56:31.736Z,17.91
2023-05-05T01:59:01.783Z,17.92
2023-05-05T02:01:30.575Z,17.88
2023-05-05T02:03:59.816Z,17.89
2023-05-05T02:06:32.466Z,17.87
2023-05-05T02:09:01.619Z,17.86
2023-05-05T02:11:29.913Z,17.83
2023-05-05T02:13:58.966Z,17.82
2023-05-05T02:16:27.420Z,17.79
2023-05-05T02:18:57.461Z,17.77
2023-05-05T02:21:24.410Z,17.77
2023-05-05T02:23:52.149Z,17.76
2023-05-05T02:26:22.953Z,17.75
2023-05-05T02:29:07.612Z,17.73
2023-05-05T02:31:41.627Z,17.71
2023-05-05T02:34:09.379Z,17.66
2023-05-05T02:36:40.047Z,17.65
2023-05-05T02:39:14.934Z,17.64
2023-05-05T02:41:44.450Z,17.63
2023-05-05T02:44:24.903Z,17.62
2023-05-05T02:46:54.456Z,17.60
2023-05-05T02:49:21.881Z,17.57
2023-05-05T02:51:49.608Z,17.55
2023-05-05T02:54:26.039Z,17.52
2023-05-05T02:56:56.782Z,17.51
2023-05-05T03:00:06.352Z,17.50
2023-05-05T03:02:54.813Z,17.47
2023-05-05T03:05:35.821Z,17.46
2023-05-05T03:08:29.749Z,17.43
2023-05-05T03:11:07.067Z,17.39
2023-05-05T03:13:43.067Z,17.37
2023-05-05T03:16:15.543Z,17.35
2023-05-05T03:18:43.583Z,17.31
2023-05-05T03:21:11.900Z,17.28
2023-05-05T03:23:42.020Z,17.27
2023-05-05T03:26:18.814Z,17.22
2023-05-05T03:28:47.158Z,17.19
2023-05-05T03:31:22.856Z,17.18
2023-05-05T03:33:54.729Z,17.18
2023-05-05T03:36:27.796Z,17.13
2023-05-05T03:38:56.553Z,17.12
2023-05-05T03:41:25.869Z,17.10
2023-05-05T03:43:53.848Z,17.08
2023-05-05T03:46:21.381Z,17.05
2023-05-05T03:48:48.825Z,17.02
2023-05-05T03:51:16.666Z,17.00
2023-05-05T03:53:43.953Z,16.97
2023-05-05T03:56:11.349Z,16.94
2023-05-05T03:58:38.879Z,16.93
2023-05-05T04:01:07.260Z,16.93
2023-05-05T04:03:34.897Z,16.91
2023-05-05T04:06:02.563Z,16.90
2023-05-05T04:08:31.640Z,16.89
2023-05-05T04:10:58.719Z,16.87
2023-05-05T04:13:26.133Z,16.86
2023-05-05T04:15:53.659Z,16.86
2023-05-05T04:18:21.186Z,16.85
2023-05-05T04:20:48.356Z,16.85
2023-05-05T04:23:16.992Z,16.85
2023-05-05T04:25:45.766Z,16.85
2023-05-05T04:28:13.616Z,16.85
2023-05-05T04:30:41.872Z,16.85
2023-05-05T04:33:09.881Z,16.83
2023-05-05T04:35:37.127Z,16.82
2023-05-05T04:38:04.216Z,16.82
2023-05-05T04:40:31.704Z,16.80
2023-05-05T04:42:59.319Z,16.79
2023-05-05T04:45:26.526Z,16.78
2023-05-05T04:47:53.695Z,16.76
2023-05-05T04:50:21.644Z,16.75
2023-05-05T04:52:48.935Z,16.72
2023-05-05T04:55:16.820Z,16.73
2023-05-05T04:57:44.547Z,16.74
2023-05-05T05:00:13.079Z,16.76
2023-05-05T05:02:40.408Z,16.76
2023-05-05T05:05:10.112Z,16.77
2023-05-05T05:07:37.488Z,16.78
2023-05-05T05:10:04.985Z,16.80
2023-05-05T05:12:32.262Z,16.83
2023-05-05T05:14:59.301Z,16.86
2023-05-05T05:17:26.974Z,16.87
2023-05-05T05:19:55.489Z,16.90
2023-05-05T05:22:23.251Z,16.92
2023-05-05T05:24:50.809Z,16.96
2023-05-05T05:27:18.006Z,16.98
2023-05-05T05:29:47.675Z,17.00
2023-05-05T05:32:15.859Z,17.02
2023-05-05T05:34:43.053Z,17.05
2023-05-05T05:37:12.397Z,17.09
2023-05-05T05:39:41.997Z,17.11
2023-05-05T05:42:11.311Z,17.13
2023-05-05T05:44:38.261Z,17.14
2023-05-05T05:47:05.600Z,17.10
2023-05-05T05:49:32.677Z,17.13
2023-05-05T05:51:59.615Z,17.17
2023-05-05T05:54:26.724Z,17.20
2023-05-05T05:56:54.482Z,17.22
2023-05-05T05:59:21.832Z,17.27
2023-05-05T06:01:48.990Z,17.30
2023-05-05T06:04:16.487Z,17.34
2023-05-05T06:06:44.502Z,17.37
2023-05-05T06:09:11.560Z,17.40
2023-05-05T06:11:43.713Z,17.44
2023-05-05T06:14:11.369Z,17.48
2023-05-05T06:16:38.651Z,17.51
2023-05-05T06:19:10.798Z,17.55
2023-05-05T06:21:38.669Z,17.56
2023-05-05T06:24:06.106Z,17.58
2023-05-05T06:26:35.190Z,17.61
2023-05-05T06:29:02.838Z,17.56
2023-05-05T06:31:30.103Z,17.62
2023-05-05T06:33:57.236Z,17.66
2023-05-05T06:36:24.320Z,17.72
2023-05-05T06:38:51.417Z,17.77
2023-05-05T06:41:18.407Z,17.82
2023-05-05T06:43:45.445Z,17.87
2023-05-05T06:46:14.400Z,17.91
2023-05-05T06:48:41.501Z,17.95
2023-05-05T06:51:09.715Z,17.96
2023-05-05T06:53:36.925Z,18.01
2023-05-05T06:56:04.576Z,18.06
2023-05-05T06:58:31.753Z,18.10
2023-05-05T07:00:58.762Z,18.12
2023-05-05T07:03:28.399Z,18.17
2023-05-05T07:05:55.986Z,18.19
2023-05-05T07:08:23.030Z,18.25
2023-05-05T07:10:49.984Z,18.28
2023-05-05T07:13:17.500Z,18.29
2023-05-05T07:15:46.612Z,18.33
2023-05-05T07:18:15.355Z,18.35
2023-05-05T07:20:46.595Z,18.39
2023-05-05T07:23:14.006Z,18.43
2023-05-05T07:25:41.206Z,18.48
2023-05-05T07:28:08.299Z,18.54
2023-05-05T07:30:36.509Z,18.58
2023-05-05T07:33:04.055Z,18.60
2023-05-05T07:35:31.174Z,18.67
2023-05-05T07:37:58.842Z,18.73
2023-05-05T07:40:26.015Z,18.74
2023-05-05T07:42:53.110Z,18.79
2023-05-05T07:45:21.253Z,18.88
2023-05-05T07:47:48.549Z,18.97
2023-05-05T07:50:16.354Z,19.02
2023-05-05T07:52:49.881Z,19.09
2023-05-05T07:55:23.327Z,19.15
2023-05-05T07:57:50.986Z,19.22
2023-05-05T08:00:19.632Z,19.28
2023-05-05T08:02:48.224Z,19.35
2023-05-05T08:05:16.986Z,19.43
2023-05-05T08:07:44.260Z,19.50
2023-05-05T08:10:12.169Z,19.55
2023-05-05T08:12:39.940Z,19.57
2023-05-05T08:15:07.962Z,19.64
2023-05-05T08:17:52.402Z,19.70
2023-05-05T08:20:21.138Z,19.73
2023-05-05T08:22:48.475Z,19.80
2023-05-05T08:25:15.512Z,19.82
2023-05-05T08:27:43.474Z,19.87
2023-05-05T08:30:11.922Z,19.95
2023-05-05T08:32:39.090Z,20.03
2023-05-05T08:35:08.294Z,20.10
2023-05-05T08:37:35.784Z,20.18
2023-05-05T08:40:03.481Z,20.26
2023-05-05T08:42:38.798Z,20.32
2023-05-05T08:45:10.848Z,20.39
2023-05-05T08:47:39.879Z,20.48
2023-05-05T08:50:10.969Z,20.57
2023-05-05T08:52:45.924Z,20.67
2023-05-05T08:55:26.679Z,20.78
2023-05-05T08:57:58.660Z,20.85
2023-05-05T09:00:27.885Z,20.89
2023-05-05T09:03:00.223Z,20.99
2023-05-05T09:05:28.888Z,21.08
2023-05-05T09:07:56.918Z,21.15
2023-05-05T09:10:30.310Z,21.25
2023-05-05T09:12:57.629Z,21.22
2023-05-05T09:15:28.346Z,21.32
2023-05-05T09:17:58.366Z,21.42
2023-05-05T09:20:35.290Z,21.46
2023-05-05T09:23:14.045Z,21.47
2023-05-05T09:25:49.901Z,21.51
2023-05-05T09:28:18.961Z,21.62
2023-05-05T09:30:47.116Z,21.72
2023-05-05T09:33:14.416Z,21.81
2023-05-05T09:38:22.900Z,22.00
2023-05-05T09:40:52.847Z,22.08
2023-05-05T09:43:22.992Z,22.17
2023-05-05T09:45:51.105Z,22.29
2023-05-05T09:48:30.720Z,22.38
2023-05-05T09:50:59.319Z,22.48
2023-05-05T09:53:38.653Z,22.55
2023-05-05T09:56:07.302Z,22.61
2023-05-05T09:58:35.091Z,22.71
2023-05-05T10:01:02.881Z,22.80
2023-05-05T10:03:29.969Z,22.87
2023-05-05T10:05:59.734Z,22.95
2023-05-05T10:08:30.988Z,23.01
2023-05-05T10:11:07.312Z,23.04
2023-05-05T10:13:41.051Z,23.10
2023-05-05T10:16:09.649Z,23.18
2023-05-05T10:18:38.680Z,23.15
2023-05-05T10:21:06.843Z,23.24
2023-05-05T10:23:43.725Z,23.33
2023-05-05T10:26:15.403Z,23.41
2023-05-05T10:28:53.483Z,23.46
2023-05-05T10:31:30.219Z,23.45
2023-05-05T10:34:06.930Z,23.58
2023-05-05T10:36:34.846Z,23.67
2023-05-05T10:39:03.342Z,23.73
2023-05-05T10:41:33.174Z,23.81
2023-05-05T10:44:03.769Z,23.87
2023-05-05T10:46:32.067Z,23.96
2023-05-05T10:49:25.728Z,24.04
2023-05-05T10:52:02.432Z,24.12
2023-05-05T10:54:51.296Z,24.17
2023-05-05T10:57:24.402Z,24.25
2023-05-05T10:59:52.287Z,24.30
2023-05-05T11:02:23.822Z,24.32
2023-05-05T11:05:18.513Z,24.38
2023-05-05T11:07:49.249Z,24.45
2023-05-05T11:10:23.346Z,24.45
2023-05-05T11:13:00.055Z,24.43
2023-05-05T11:15:30.593Z,24.48
2023-05-05T11:17:59.997Z,24.53
2023-05-05T11:20:36.814Z,24.63
2023-05-05T11:23:22.003Z,24.70
2023-05-05T11:25:51.425Z,24.81
2023-05-05T11:28:31.158Z,24.93
2023-05-05T11:31:01.224Z,25.04
2023-05-05T11:33:37.733Z,25.14
2023-05-05T11:36:10.038Z,25.15
2023-05-05T11:39:12.178Z,25.20
2023-05-05T11:41:48.620Z,25.30
2023-05-05T11:44:19.815Z,25.44
2023-05-05T11:46:52.815Z,25.57
2023-05-05T11:49:30.658Z,25.63
2023-05-05T11:52:12.594Z,25.67
2023-05-05T11:54:50.408Z,25.70
2023-05-05T11:57:23.916Z,25.72
2023-05-05T11:59:55.201Z,25.77
2023-05-05T12:02:23.950Z,25.87
2023-05-05T12:04:51.727Z,25.95
2023-05-05T12:07:22.676Z,25.99
2023-05-05T12:09:50.718Z,25.96
2023-05-05T12:12:19.061Z,25.97
2023-05-05T12:14:53.167Z,25.97
2023-05-05T12:17:22.542Z,26.01
2023-05-05T12:19:54.783Z,25.92
2023-05-05T12:22:26.941Z,25.98
2023-05-05T12:24:55.766Z,26.04
2023-05-05T12:27:23.276Z,26.07
2023-05-05T12:29:52.664Z,26.06
2023-05-05T12:32:28.166Z,25.95
2023-05-05T12:34:57.603Z,25.94
2023-05-05T12:37:26.887Z,26.02
2023-05-05T12:39:55.178Z,26.16
2023-05-05T12:42:23.408Z,26.08
2023-05-05T12:44:50.729Z,26.00
2023-05-05T12:47:32.495Z,25.86
2023-05-05T12:50:00.575Z,25.93
2023-05-05T12:52:45.312Z,26.01
2023-05-05T12:55:13.223Z,26.18
2023-05-05T12:58:01.005Z,26.30
2023-05-05T13:00:29.252Z,26.27
2023-05-05T13:02:56.964Z,26.41
2023-05-05T13:05:41.087Z,26.49
2023-05-05T13:08:08.060Z,26.38
2023-05-05T13:10:36.337Z,26.33
2023-05-05T13:13:05.018Z,26.37
2023-05-05T13:15:33.813Z,26.47
2023-05-05T13:18:01.540Z,26.53
2023-05-05T13:20:29.759Z,26.51
2023-05-05T13:22:57.424Z,26.43
2023-05-05T13:25:24.422Z,26.62
2023-05-05T13:27:51.494Z,26.73
2023-05-05T13:30:18.580Z,26.74
2023-05-05T13:32:45.597Z,26.79
2023-05-05T13:35:15.454Z,26.84
2023-05-05T13:37:44.404Z,26.91
2023-05-05T13:40:13.437Z,26.89
2023-05-05T13:42:40.430Z,26.88
2023-05-05T13:45:08.357Z,26.96
2023-05-05T13:47:35.987Z,27.04
2023-05-05T13:50:03.138Z,27.10
2023-05-05T13:52:31.809Z,27.10
2023-05-05T13:55:00.934Z,27.09
2023-05-05T13:57:28.105Z,27.11
2023-05-05T13:59:55.156Z,27.16
2023-05-05T14:02:22.204Z,27.12
2023-05-05T14:04:49.312Z,27.03
2023-05-05T14:07:16.960Z,26.98
2023-05-05T14:09:44.456Z,26.87
2023-05-05T14:12:11.685Z,26.84
2023-05-05T14:14:38.662Z,26.88
2023-05-05T14:17:05.940Z,26.94
2023-05-05T14:19:33.515Z,26.93
2023-05-05T14:22:00.557Z,27.01
2023-05-05T14:24:27.599Z,27.05
2023-05-05T14:26:54.730Z,27.14
2023-05-05T14:29:21.686Z,27.23
2023-05-05T14:31:48.740Z,27.25
2023-05-05T14:34:15.777Z,27.31
2023-05-05T14:36:42.682Z,27.44
2023-05-05T14:39:09.660Z,27.57
2023-05-05T14:41:36.770Z,27.67
2023-05-05T14:44:03.915Z,27.71
2023-05-05T14:46:31.737Z,27.67
2023-05-05T14:48:59.056Z,27.59
2023-05-05T14:51:26.145Z,27.51
2023-05-05T14:53:53.144Z,27.48
2023-05-05T14:56:22.563Z,27.47
2023-05-05T14:58:49.633Z,27.45
2023-05-05T15:01:16.940Z,27.37
2023-05-05T15:03:44.081Z,27.37
2023-05-05T15:06:11.200Z,27.41
2023-05-05T15:08:39.209Z,27.38
2023-05-05T15:11:06.674Z,27.37
2023-05-05T15:13:33.697Z,27.38
2023-05-05T15:16:00.941Z,27.39
2023-05-05T15:18:27.925Z,27.41
2023-05-05T15:20:54.871Z,27.45
2023-05-05T15:23:21.916Z,27.50
2023-05-05T15:25:48.972Z,27.51
2023-05-05T15:28:16.056Z,27.49
2023-05-05T15:30:43.181Z,27.39
2023-05-05T15:33:10.257Z,27.05
2023-05-05T15:35:37.488Z,27.11
2023-05-05T15:38:04.507Z,27.18
2023-05-05T15:40:31.661Z,27.20
2023-05-05T15:42:58.868Z,27.12
2023-05-05T15:45:26.076Z,27.13
2023-05-05T15:47:53.820Z,27.16
2023-05-05T15:50:21.237Z,27.12
2023-05-05T15:52:50.075Z,27.06
2023-05-05T15:55:17.564Z,27.06
2023-05-05T15:57:44.575Z,27.06
2023-05-05T16:00:12.469Z,27.02
2023-05-05T16:02:39.756Z,27.03
2023-05-05T16:05:07.272Z,27.03
2023-05-05T16:07:34.493Z,26.94
2023-05-05T16:10:01.521Z,26.87
2023-05-05T16:12:28.608Z,26.85
2023-05-05T16:14:55.822Z,26.78
2023-05-05T16:17:22.956Z,26.76
2023-05-05T16:19:49.986Z,26.75
2023-05-05T16:22:17.016Z,26.72
2023-05-05T16:24:44.437Z,26.73
2023-05-05T16:27:11.617Z,26.72
2023-05-05T16:29:38.668Z,26.75
2023-05-05T16:32:06.168Z,26.69
2023-05-05T16:34:33.624Z,26.66
2023-05-05T16:37:00.844Z,26.68
2023-05-05T16:39:27.918Z,26.69
2023-05-05T16:41:55.012Z,26.68
2023-05-05T16:44:21.963Z,26.69
2023-05-05T16:46:48.934Z,26.67
2023-05-05T16:49:16.122Z,26.67
2023-05-05T16:51:43.115Z,26.65
2023-05-05T16:54:10.174Z,26.62
2023-05-05T16:56:37.344Z,26.64
2023-05-05T16:59:04.351Z,26.64
2023-05-05T17:01:32.067Z,26.65
2023-05-05T17:04:02.449Z,26.64
2023-05-05T17:06:33.221Z,26.62
2023-05-05T17:09:00.437Z,26.62
2023-05-05T17:11:27.500Z,26.61
2023-05-05T17:13:54.576Z,26.61
2023-05-05T17:16:21.559Z,26.60
2023-05-05T17:18:48.607Z,26.56
2023-05-05T17:21:15.605Z,26.56
2023-05-05T17:23:42.712Z,26.54
2023-05-05T17:26:09.727Z,26.50
2023-05-05T17:28:36.917Z,26.46
2023-05-05T17:31:03.914Z,26.38
2023-05-05T17:33:31.739Z,26.35
2023-05-05T17:35:59.095Z,26.32
2023-05-05T17:38:26.221Z,26.29
2023-05-05T17:40:53.396Z,26.24
2023-05-05T17:43:20.392Z,26.19
2023-05-05T17:45:47.528Z,26.16
2023-05-05T17:48:14.604Z,26.10
2023-05-05T17:50:43.418Z,26.04
2023-05-05T17:53:11.188Z,25.98
2023-05-05T17:55:38.440Z,25.90
2023-05-05T17:58:05.459Z,25.82
2023-05-05T18:00:32.456Z,25.76
2023-05-05T18:03:04.614Z,25.73
2023-05-05T18:05:31.961Z,25.65
2023-05-05T18:07:59.307Z,25.58
2023-05-05T18:10:26.513Z,25.53
2023-05-05T18:12:53.544Z,25.49
2023-05-05T18:15:21.691Z,25.45
2023-05-05T18:17:48.699Z,25.42
2023-05-05T18:20:16.102Z,25.38
2023-05-05T18:22:43.161Z,25.33
2023-05-05T18:25:10.466Z,25.29
2023-05-05T18:27:40.138Z,25.26
2023-05-05T18:30:08.323Z,25.19
2023-05-05T18:32:35.441Z,25.15
2023-05-05T18:35:02.752Z,25.12
2023-05-05T18:37:29.812Z,25.07
2023-05-05T18:39:56.809Z,25.05
2023-05-05T18:42:23.757Z,25.00
2023-05-05T18:44:50.714Z,24.96
2023-05-05T18:47:17.657Z,24.93
2023-05-05T18:49:45.507Z,24.88
2023-05-05T18:52:12.524Z,24.83
2023-05-05T18:54:39.613Z,24.79
2023-05-05T18:57:07.043Z,24.73
2023-05-05T18:59:34.166Z,24.67
2023-05-05T19:02:01.318Z,24.61
2023-05-05T19:04:31.648Z,24.56
2023-05-05T19:06:59.912Z,24.48
2023-05-05T19:09:27.554Z,24.42
2023-05-05T19:12:00.500Z,24.36
2023-05-05T19:14:27.711Z,24.29
2023-05-05T19:16:56.039Z,24.22
2023-05-05T19:19:23.356Z,24.16
2023-05-05T19:21:50.978Z,24.12
2023-05-05T19:24:17.977Z,24.07
2023-05-05T19:26:45.063Z,24.01
2023-05-05T19:29:12.860Z,23.96
2023-05-05T19:31:39.982Z,23.90
2023-05-05T19:34:07.476Z,23.87
2023-05-05T19:36:35.419Z,23.82
2023-05-05T19:39:04.743Z,23.78
2023-05-05T19:41:32.719Z,23.74
2023-05-05T19:44:00.210Z,23.68
2023-05-05T19:46:27.666Z,23.64
2023-05-05T19:48:55.085Z,23.60
2023-05-05T19:51:22.245Z,23.55
2023-05-05T19:53:50.257Z,23.49
2023-05-05T19:56:17.506Z,23.46
2023-05-05T19:58:59.283Z,23.41
2023-05-05T20:01:28.052Z,23.36
2023-05-05T20:03:57.089Z,23.33
2023-05-05T20:06:27.595Z,23.27
2023-05-05T20:08:55.472Z,23.23
2023-05-05T20:11:23.180Z,23.19
2023-05-05T20:13:51.624Z,23.15
2023-05-05T20:16:18.941Z,23.11
2023-05-05T20:18:45.970Z,23.06
2023-05-05T20:21:13.190Z,23.02
2023-05-05T20:23:40.310Z,22.95
2023-05-05T20:26:07.785Z,22.90
2023-05-05T20:28:35.547Z,22.85
2023-05-05T20:31:02.501Z,22.81
2023-05-05T20:33:29.736Z,22.78
2023-05-05T20:35:57.030Z,22.75
2023-05-05T20:38:24.422Z,22.71
2023-05-05T20:40:52.324Z,22.68
2023-05-05T20:43:19.709Z,22.66
2023-05-05T20:45:47.198Z,22.62
2023-05-05T20:48:14.192Z,22.60
2023-05-05T20:50:42.139Z,22.58
2023-05-05T20:53:13.715Z,22.54
2023-05-05T20:55:40.900Z,22.51
2023-05-05T20:58:07.946Z,22.50
2023-05-05T21:00:35.410Z,22.46
2023-05-05T21:03:04.339Z,22.43
2023-05-05T21:05:31.714Z,22.41
2023-05-05T21:08:00.845Z,22.39
2023-05-05T21:10:29.144Z,22.37
2023-05-05T21:12:56.380Z,22.34
2023-05-05T21:15:23.418Z,22.30
2023-05-05T21:17:50.637Z,22.28
2023-05-05T21:20:18.784Z,22.24
2023-05-05T21:22:46.263Z,22.21
2023-05-05T21:25:20.315Z,22.19
2023-05-05T21:27:48.880Z,22.14
2023-05-05T21:30:16.610Z,22.11
2023-05-05T21:32:44.137Z,22.08
2023-05-05T21:35:11.504Z,22.04
2023-05-05T21:37:39.296Z,22.01
2023-05-05T21:40:13.646Z,21.98
2023-05-05T21:42:42.417Z,21.95
2023-05-05T21:45:11.477Z,21.92
2023-05-05T21:47:38.672Z,21.88
2023-05-05T21:50:06.763Z,21.86
2023-05-05T21:52:34.006Z,21.82
2023-05-05T21:55:01.163Z,21.79
2023-05-05T21:57:28.465Z,21.76
2023-05-05T21:59:55.801Z,21.72
2023-05-05T22:02:23.402Z,21.67
2023-05-05T22:04:54.847Z,21.62
2023-05-05T22:07:22.051Z,21.60
2023-05-05T22:09:49.024Z,21.54
2023-05-05T22:12:16.387Z,21.50
2023-05-05T22:14:43.380Z,21.46
2023-05-05T22:17:11.414Z,21.43
2023-05-05T22:19:38.421Z,21.40
2023-05-05T22:22:05.460Z,21.37
2023-05-05T22:24:32.559Z,21.34
2023-05-05T22:26:59.709Z,21.30
2023-05-05T22:29:26.606Z,21.28
2023-05-05T22:31:53.553Z,21.26
2023-05-05T22:34:21.964Z,21.22
2023-05-05T22:36:49.924Z,21.20
2023-05-05T22:39:18.515Z,21.15
2023-05-05T22:41:45.733Z,21.13
2023-05-05T22:44:12.828Z,21.11
2023-05-05T22:46:39.862Z,21.02
2023-05-05T22:49:06.966Z,20.99
2023-05-05T22:51:34.239Z,20.94
2023-05-05T22:54:01.421Z,20.91
2023-05-05T22:56:28.374Z,20.87
2023-05-05T22:58:56.038Z,20.87
2023-05-05T23:01:23.213Z,20.85
2023-05-05T23:03:50.330Z,20.83
2023-05-05T23:06:17.455Z,20.80
2023-05-05T23:08:44.707Z,20.76
2023-05-05T23:11:11.779Z,20.73
2023-05-05T23:13:38.731Z,20.70
2023-05-05T23:16:05.920Z,20.66
2023-05-05T23:18:32.940Z,20.64
2023-05-05T23:20:59.988Z,20.61
2023-05-05T23:23:27.038Z,20.58
2023-05-05T23:25:54.111Z,20.52
2023-05-05T23:28:21.081Z,20.48
2023-05-05T23:30:48.266Z,20.44
2023-05-05T23:33:15.419Z,20.42
2023-05-05T23:35:45.184Z,20.41
2023-05-05T23:38:12.290Z,20.38
2023-05-05T23:40:39.257Z,20.35
2023-05-05T23:43:06.316Z,20.32
2023-05-05T23:45:33.474Z,20.31
2023-05-05T23:48:00.516Z,20.31
2023-05-05T23:50:27.870Z,20.30
2023-05-05T23:52:54.908Z,20.27
2023-05-05T23:55:22.294Z,20.24
2023-05-05T23:57:51.630Z,20.22
